createdAt,value
2018-04-16T00:00:39.995Z,21.70
2018-04-16T00:03:07.484Z,21.70
2018-04-16T00:05:35.291Z,21.70
2018-04-16T00:08:03.555Z,21.60
2018-04-16T00:10:31.041Z,21.60
2018-04-16T00:12:59.280Z,21.60
2018-04-16T00:15:26.787Z,21.60
2018-04-16T00:17:54.279Z,21.50
2018-04-16T00:20:21.849Z,21.50
2018-04-16T00:22:50.110Z,21.40
2018-04-16T00:25:17.580Z,21.40
2018-04-16T00:27:45.061Z,21.30
2018-04-16T00:30:12.562Z,21.30
2018-04-16T00:32:45.773Z,21.30
2018-04-16T00:35:19.016Z,21.20
2018-04-16T00:37:52.133Z,21.20
2018-04-16T00:40:25.291Z,21.10
2018-04-16T00:42:58.525Z,21.00
2018-04-16T00:45:31.792Z,20.90
2018-04-16T00:51:09.571Z,20.80
2018-04-16T00:53:54.571Z,20.70
2018-04-16T00:56:27.660Z,20.70
2018-04-16T00:59:00.898Z,20.60
2018-04-16T01:01:34.024Z,20.60
2018-04-16T01:04:08.055Z,20.50
2018-04-16T01:06:41.349Z,20.50
2018-04-16T01:09:14.543Z,20.50
2018-04-16T01:11:47.825Z,20.40
2018-04-16T01:14:20.924Z,20.40
2018-04-16T01:16:54.268Z,20.30
2018-04-16T01:19:27.836Z,20.30
2018-04-16T01:22:00.992Z,20.30
2018-04-16T01:24:34.092Z,20.30
2018-04-16T01:27:07.336Z,20.20
2018-04-16T01:29:40.432Z,20.20
2018-04-16T01:32:13.683Z,20.20
2018-04-16T01:34:46.879Z,20.10
2018-04-16T01:37:20.092Z,20.10
2018-04-16T01:39:53.253Z,20.00
2018-04-16T01:42:26.509Z,20.00
2018-04-16T01:44:59.604Z,19.90
2018-04-16T01:47:32.837Z,19.90
2018-04-16T01:50:06.111Z,19.90
2018-04-16T01:52:39.355Z,19.80
2018-04-16T01:55:12.514Z,19.80
2018-04-16T01:57:45.611Z,19.80
2018-04-16T02:00:18.633Z,19.80
2018-04-16T02:02:51.840Z,19.70
2018-04-16T02:05:25.152Z,19.70
2018-04-16T02:07:58.423Z,19.70
2018-04-16T02:10:31.519Z,19.70
2018-04-16T02:13:04.745Z,19.70
2018-04-16T02:15:37.868Z,19.60
2018-04-16T02:18:11.115Z,19.60
2018-04-16T02:20:44.982Z,19.50
2018-04-16T02:23:18.088Z,19.50
2018-04-16T02:25:51.333Z,19.50
2018-04-16T02:28:24.531Z,19.40
2018-04-16T02:30:57.657Z,19.40
2018-04-16T02:33:31.575Z,19.30
2018-04-16T02:36:05.518Z,19.30
2018-04-16T02:38:38.781Z,19.30
2018-04-16T02:41:11.975Z,19.30
2018-04-16T02:43:45.251Z,19.30
2018-04-16T02:46:18.481Z,19.20
2018-04-16T02:48:51.692Z,19.20
2018-04-16T02:51:24.802Z,19.10
2018-04-16T02:53:58.028Z,19.10
2018-04-16T02:56:31.221Z,19.10
2018-04-16T02:59:04.501Z,19.00
2018-04-16T03:01:37.741Z,19.00
2018-04-16T03:04:10.946Z,18.90
2018-04-16T03:06:44.152Z,18.90
2018-04-16T03:09:17.411Z,18.90
2018-04-16T03:11:50.713Z,18.80
2018-04-16T03:14:23.949Z,18.80
2018-04-16T03:16:57.223Z,18.80
2018-04-16T03:19:30.221Z,18.70
2018-04-16T03:22:04.215Z,18.70
2018-04-16T03:24:37.344Z,18.70
2018-04-16T03:27:11.352Z,18.60
2018-04-16T03:29:44.564Z,18.60
2018-04-16T03:32:18.472Z,18.60
2018-04-16T03:34:51.604Z,18.60
2018-04-16T03:37:25.629Z,18.50
2018-04-16T03:39:59.645Z,18.50
2018-04-16T03:42:33.668Z,18.50
2018-04-16T03:45:07.791Z,18.40
2018-04-16T03:47:40.951Z,18.40
2018-04-16T03:50:14.126Z,18.40
2018-04-16T03:52:47.157Z,18.40
2018-04-16T03:55:24.557Z,18.30
2018-04-16T03:57:52.055Z,18.30
2018-04-16T04:00:19.542Z,18.20
2018-04-16T04:02:47.014Z,18.20
2018-04-16T04:05:14.482Z,18.20
2018-04-16T04:07:41.977Z,18.10
2018-04-16T04:10:10.218Z,18.10
2018-04-16T04:12:38.464Z,18.00
2018-04-16T04:15:05.959Z,18.10
2018-04-16T04:17:33.447Z,18.00
2018-04-16T04:20:00.922Z,18.00
2018-04-16T04:22:40.213Z,18.00
2018-04-16T04:25:19.559Z,18.00
2018-04-16T04:27:59.619Z,17.90
2018-04-16T04:30:45.448Z,17.80
2018-04-16T04:33:13.009Z,17.80
2018-04-16T04:35:41.271Z,17.80
2018-04-16T04:38:08.782Z,17.80
2018-04-16T04:40:36.255Z,17.70
2018-04-16T04:43:03.793Z,17.70
2018-04-16T04:45:31.272Z,17.70
2018-04-16T04:47:59.531Z,17.70
2018-04-16T04:50:27.029Z,17.70
2018-04-16T04:52:54.545Z,17.70
2018-04-16T04:55:22.758Z,17.60
2018-04-16T04:57:50.219Z,17.60
2018-04-16T05:00:17.728Z,17.60
2018-04-16T05:02:45.200Z,17.60
2018-04-16T05:05:12.768Z,17.60
2018-04-16T05:07:40.232Z,17.60
2018-04-16T05:10:07.718Z,17.50
2018-04-16T05:12:35.973Z,17.50
2018-04-16T05:15:03.458Z,17.50
2018-04-16T05:17:30.958Z,17.50
2018-04-16T05:19:59.229Z,17.50
2018-04-16T05:22:26.689Z,17.40
2018-04-16T05:24:54.172Z,17.50
2018-04-16T05:27:21.632Z,17.40
2018-04-16T05:29:49.115Z,17.40
2018-04-16T05:32:16.589Z,17.40
2018-04-16T05:34:44.194Z,17.40
2018-04-16T05:37:11.703Z,17.30
2018-04-16T05:39:39.189Z,17.30
2018-04-16T05:44:41.396Z,17.30
2018-04-16T05:47:08.871Z,17.30
2018-04-16T05:49:36.340Z,17.30
2018-04-16T05:52:03.830Z,17.30
2018-04-16T05:54:32.068Z,17.30
2018-04-16T05:56:59.551Z,17.30
2018-04-16T05:59:27.012Z,17.30
2018-04-16T06:01:54.562Z,17.30
2018-04-16T06:04:22.035Z,17.30
2018-04-16T06:06:49.512Z,17.30
2018-04-16T06:09:17.008Z,17.30
2018-04-16T06:11:44.491Z,17.30
2018-04-16T06:14:12.069Z,17.30
2018-04-16T06:16:39.575Z,17.30
2018-04-16T06:19:07.860Z,17.40
2018-04-16T06:21:35.307Z,17.40
2018-04-16T06:24:02.778Z,17.40
2018-04-16T06:26:30.284Z,17.40
2018-04-16T06:28:57.780Z,17.40
2018-04-16T06:31:25.341Z,17.50
2018-04-16T06:33:52.815Z,17.50
2018-04-16T06:36:20.290Z,17.50
2018-04-16T06:38:47.763Z,17.60
2018-04-16T06:41:15.233Z,17.60
2018-04-16T06:43:42.733Z,17.70
2018-04-16T06:46:10.201Z,17.80
2018-04-16T06:48:37.734Z,17.90
2018-04-16T06:51:05.410Z,18.00
2018-04-16T06:53:33.419Z,18.10
2018-04-16T06:56:00.884Z,18.20
2018-04-16T06:58:28.644Z,18.30
2018-04-16T07:00:56.123Z,18.50
2018-04-16T07:03:23.608Z,18.60
2018-04-16T07:05:51.288Z,18.80
2018-04-16T07:08:18.805Z,19.10
2018-04-16T07:10:47.081Z,19.60
2018-04-16T07:13:14.556Z,19.50
2018-04-16T07:15:42.894Z,20.20
2018-04-16T07:18:11.099Z,20.60
2018-04-16T07:20:38.576Z,20.60
2018-04-16T07:23:06.172Z,21.00
2018-04-16T07:25:33.658Z,21.30
2018-04-16T07:28:01.137Z,21.80
2018-04-16T07:30:29.399Z,22.60
2018-04-16T07:32:56.875Z,22.50
2018-04-16T07:35:24.371Z,23.00
2018-04-16T07:37:52.640Z,23.80
2018-04-16T07:40:20.100Z,23.80
2018-04-16T07:42:47.584Z,24.20
2018-04-16T07:45:15.060Z,24.60
2018-04-16T07:47:43.356Z,25.50
2018-04-16T07:50:11.584Z,25.90
2018-04-16T07:52:39.072Z,25.80
2018-04-16T07:55:06.559Z,26.20
2018-04-16T07:57:34.045Z,26.60
2018-04-16T08:00:01.525Z,26.90
2018-04-16T08:02:29.009Z,27.30
2018-04-16T08:04:57.234Z,28.00
2018-04-16T08:07:24.711Z,27.90
2018-04-16T08:09:52.192Z,28.30
2018-04-16T08:12:19.665Z,28.50
2018-04-16T08:14:47.140Z,28.80
2018-04-16T08:17:14.722Z,29.10
2018-04-16T08:19:42.196Z,29.30
2018-04-16T08:22:09.696Z,29.60
2018-04-16T08:24:37.931Z,30.20
2018-04-16T08:27:05.484Z,30.20
2018-04-16T08:29:33.692Z,30.90
2018-04-16T08:32:01.959Z,31.20
2018-04-16T08:34:29.470Z,31.20
2018-04-16T08:36:56.935Z,31.50
2018-04-16T08:39:24.436Z,31.80
2018-04-16T08:41:52.663Z,32.40
2018-04-16T08:44:20.161Z,32.30
2018-04-16T08:46:47.630Z,32.70
2018-04-16T08:49:15.110Z,33.00
2018-04-16T08:51:42.572Z,33.30
2018-04-16T08:54:10.825Z,33.90
2018-04-16T08:56:38.377Z,33.90
2018-04-16T08:59:06.060Z,34.20
2018-04-16T09:01:34.307Z,34.80
2018-04-16T09:04:01.980Z,34.80
2018-04-16T09:06:29.445Z,35.10
2018-04-16T09:08:56.939Z,35.40
2018-04-16T09:11:24.426Z,35.80
2018-04-16T09:13:52.663Z,36.40
2018-04-16T09:16:20.175Z,36.40
2018-04-16T09:18:47.647Z,36.70
2018-04-16T09:21:15.252Z,36.90
2018-04-16T09:23:42.717Z,37.20
2018-04-16T09:26:10.193Z,37.30
2018-04-16T09:28:37.673Z,37.50
2018-04-16T09:31:05.176Z,37.60
2018-04-16T09:33:32.637Z,37.80
2018-04-16T09:36:00.205Z,38.00
2018-04-16T09:38:27.797Z,38.20
2018-04-16T09:40:55.296Z,38.40
2018-04-16T09:43:22.764Z,38.60
2018-04-16T09:45:50.376Z,38.80
2018-04-16T09:48:18.199Z,38.90
2018-04-16T09:50:45.854Z,39.10
2018-04-16T09:53:13.696Z,39.30
2018-04-16T09:55:42.919Z,39.60
2018-04-16T09:58:10.448Z,39.60
2018-04-16T10:00:43.658Z,39.80
2018-04-16T10:03:16.977Z,40.00
2018-04-16T10:05:44.452Z,40.20
2018-04-16T10:08:12.702Z,40.60
2018-04-16T10:10:41.033Z,40.80
2018-04-16T10:13:08.552Z,40.80
2018-04-16T10:15:36.016Z,41.00
2018-04-16T10:18:03.545Z,41.20
2018-04-16T10:20:31.005Z,41.40
2018-04-16T10:22:58.497Z,41.50
2018-04-16T10:25:26.751Z,41.60
2018-04-16T10:27:54.232Z,41.60
2018-04-16T10:30:21.692Z,41.70
2018-04-16T10:32:49.175Z,41.80
2018-04-16T10:35:16.791Z,41.80
2018-04-16T10:37:44.277Z,42.00
2018-04-16T10:40:11.751Z,42.10
2018-04-16T10:42:39.241Z,42.20
2018-04-16T10:45:07.547Z,42.00
2018-04-16T10:47:35.013Z,42.00
2018-04-16T10:50:02.496Z,41.90
2018-04-16T10:52:29.965Z,41.80
2018-04-16T10:54:57.467Z,41.90
2018-04-16T10:57:25.699Z,41.80
2018-04-16T10:59:53.193Z,41.70
2018-04-16T11:02:20.657Z,41.60
2018-04-16T11:04:48.144Z,41.50
2018-04-16T11:07:15.641Z,41.50
2018-04-16T11:09:43.381Z,41.50
2018-04-16T11:12:10.848Z,41.70
2018-04-16T11:14:39.119Z,41.90
2018-04-16T11:17:06.632Z,41.80
2018-04-16T11:19:34.188Z,42.00
2018-04-16T11:22:01.669Z,42.10
2018-04-16T11:24:29.184Z,42.20
2018-04-16T11:26:56.692Z,42.30
2018-04-16T11:29:24.185Z,42.30
2018-04-16T11:31:51.652Z,42.20
2018-04-16T11:34:19.229Z,42.00
2018-04-16T11:36:46.704Z,42.00
2018-04-16T11:39:14.191Z,42.00
2018-04-16T11:41:42.444Z,42.40
2018-04-16T11:44:09.919Z,42.40
2018-04-16T11:46:37.395Z,42.50
2018-04-16T11:49:04.902Z,42.50
2018-04-16T11:51:32.427Z,42.40
2018-04-16T11:53:59.896Z,42.20
2018-04-16T11:56:27.412Z,41.90
2018-04-16T11:58:55.637Z,41.30
2018-04-16T12:01:23.120Z,41.20
2018-04-16T12:03:50.588Z,40.80
2018-04-16T12:06:18.109Z,40.40
2018-04-16T12:08:45.617Z,39.90
2018-04-16T12:11:13.130Z,39.60
2018-04-16T12:13:40.624Z,39.30
2018-04-16T12:16:08.873Z,38.90
2018-04-16T12:18:36.413Z,38.90
2018-04-16T12:21:03.899Z,38.80
2018-04-16T12:23:31.375Z,38.80
2018-04-16T12:25:58.874Z,38.80
2018-04-16T12:28:26.691Z,39.00
2018-04-16T12:30:54.198Z,39.20
2018-04-16T12:33:21.677Z,39.60
2018-04-16T12:35:49.180Z,39.90
2018-04-16T12:38:17.429Z,40.70
2018-04-16T12:40:44.913Z,40.70
2018-04-16T12:43:12.403Z,41.10
2018-04-16T12:45:40.644Z,42.00
2018-04-16T12:48:08.357Z,42.00
2018-04-16T12:50:35.839Z,42.50
2018-04-16T12:53:03.378Z,42.80
2018-04-16T12:55:30.836Z,42.80
2018-04-16T12:57:58.329Z,42.60
2018-04-16T13:00:25.799Z,42.40
2018-04-16T13:02:53.291Z,42.20
2018-04-16T13:05:21.569Z,42.20
2018-04-16T13:07:49.190Z,42.10
2018-04-16T13:10:16.629Z,42.20
2018-04-16T13:12:44.100Z,42.50
2018-04-16T13:15:11.576Z,42.70
2018-04-16T13:17:39.851Z,43.40
2018-04-16T13:20:07.337Z,43.40
2018-04-16T13:22:35.575Z,43.90
2018-04-16T13:25:03.857Z,43.90
2018-04-16T13:27:31.346Z,44.00
2018-04-16T13:29:58.825Z,43.90
2018-04-16T13:32:26.295Z,43.60
2018-04-16T13:34:53.781Z,43.40
2018-04-16T13:37:21.352Z,43.10
2018-04-16T13:39:48.859Z,42.90
2018-04-16T13:42:17.111Z,42.30
2018-04-16T13:44:44.593Z,42.30
2018-04-16T13:47:12.064Z,41.90
2018-04-16T13:49:40.325Z,41.20
2018-04-16T13:52:07.792Z,41.20
2018-04-16T13:54:35.268Z,41.10
2018-04-16T13:57:02.735Z,41.10
2018-04-16T13:59:30.224Z,41.20
2018-04-16T14:01:57.711Z,41.20
2018-04-16T14:04:25.208Z,41.10
2018-04-16T14:06:53.495Z,41.30
2018-04-16T14:09:21.065Z,41.30
2018-04-16T14:11:49.320Z,41.50
2018-04-16T14:14:16.842Z,41.50
2018-04-16T14:16:44.324Z,41.60
2018-04-16T14:19:11.804Z,41.80
2018-04-16T14:21:39.320Z,41.60
2018-04-16T14:24:06.787Z,41.30
2018-04-16T14:26:34.267Z,40.90
2018-04-16T14:29:02.500Z,40.30
2018-04-16T14:31:29.984Z,40.30
2018-04-16T14:33:57.454Z,40.20
2018-04-16T14:36:24.929Z,40.40
2018-04-16T14:38:52.393Z,40.60
2018-04-16T14:41:19.878Z,41.00
2018-04-16T14:43:47.350Z,41.40
2018-04-16T14:46:14.875Z,41.60
2018-04-16T14:48:42.376Z,42.00
2018-04-16T14:51:09.832Z,42.20
2018-04-16T14:53:37.312Z,42.60
2018-04-16T14:56:04.787Z,42.90
2018-04-16T14:58:32.301Z,43.20
2018-04-16T15:00:59.782Z,43.40
2018-04-16T15:03:28.071Z,43.70
2018-04-16T15:05:55.514Z,43.70
2018-04-16T15:08:23.012Z,43.90
2018-04-16T15:10:50.481Z,44.00
2018-04-16T15:13:17.989Z,44.00
2018-04-16T15:15:45.469Z,44.00
2018-04-16T15:18:12.959Z,44.00
2018-04-16T15:20:40.433Z,44.00
2018-04-16T15:23:07.915Z,43.90
2018-04-16T15:25:35.376Z,43.80
2018-04-16T15:28:03.631Z,43.60
2018-04-16T15:30:31.095Z,43.50
2018-04-16T15:32:58.588Z,43.30
2018-04-16T15:35:26.056Z,43.10
2018-04-16T15:37:53.558Z,42.90
2018-04-16T15:40:21.042Z,42.90
2018-04-16T15:42:48.499Z,42.70
2018-04-16T15:45:16.024Z,42.70
2018-04-16T15:47:43.516Z,42.50
2018-04-16T15:50:11.044Z,42.30
2018-04-16T15:52:39.289Z,41.90
2018-04-16T15:55:06.821Z,41.90
2018-04-16T15:57:35.049Z,41.70
2018-04-16T16:00:02.540Z,41.60
2018-04-16T16:02:30.033Z,41.50
2018-04-16T16:04:58.290Z,41.10
2018-04-16T16:07:25.784Z,41.10
2018-04-16T16:09:53.275Z,40.90
2018-04-16T16:12:21.566Z,40.60
2018-04-16T16:14:49.002Z,40.60
2018-04-16T16:17:16.509Z,40.60
2018-04-16T16:19:43.997Z,40.40
2018-04-16T16:22:11.464Z,40.30
2018-04-16T16:24:38.982Z,40.20
2018-04-16T16:27:06.440Z,40.00
2018-04-16T16:29:33.909Z,39.80
2018-04-16T16:32:01.397Z,39.70
2018-04-16T16:34:28.864Z,39.50
2018-04-16T16:36:56.391Z,39.20
2018-04-16T16:39:23.859Z,39.10
2018-04-16T16:41:51.332Z,38.90
2018-04-16T16:44:18.788Z,38.70
2018-04-16T16:46:47.032Z,38.10
2018-04-16T16:49:14.521Z,38.10
2018-04-16T16:51:42.014Z,37.70
2018-04-16T16:54:10.417Z,36.80
2018-04-16T16:56:38.552Z,36.80
2018-04-16T16:59:06.024Z,36.30
2018-04-16T17:01:33.497Z,35.80
2018-04-16T17:04:01.724Z,34.80
2018-04-16T17:06:30.088Z,34.30
2018-04-16T17:08:57.576Z,34.30
2018-04-16T17:11:25.057Z,33.90
2018-04-16T17:13:53.288Z,33.00
2018-04-16T17:16:20.824Z,33.00
2018-04-16T17:18:49.064Z,32.20
2018-04-16T17:21:17.318Z,31.80
2018-04-16T17:23:44.798Z,31.70
2018-04-16T17:26:12.625Z,31.40
2018-04-16T17:28:40.112Z,31.10
2018-04-16T17:31:07.636Z,30.80
2018-04-16T17:33:35.128Z,30.60
2018-04-16T17:36:02.611Z,30.30
2018-04-16T17:38:30.205Z,30.10
2018-04-16T17:40:58.479Z,29.80
2018-04-16T17:43:27.588Z,29.60
2018-04-16T17:45:55.078Z,29.60
2018-04-16T17:48:22.587Z,29.50
2018-04-16T17:50:50.156Z,29.30
2018-04-16T17:53:17.869Z,29.10
2018-04-16T17:55:46.859Z,28.80
2018-04-16T17:58:14.379Z,28.80
2018-04-16T18:00:42.131Z,28.70
2018-04-16T18:03:10.617Z,28.50
2018-04-16T18:05:38.087Z,28.40
2018-04-16T18:08:05.587Z,28.30
2018-04-16T18:10:33.847Z,28.00
2018-04-16T18:13:01.385Z,28.00
2018-04-16T18:15:28.866Z,27.90
2018-04-16T18:17:56.427Z,27.80
2018-04-16T18:20:23.933Z,27.70
2018-04-16T18:22:51.420Z,27.60
2018-04-16T18:25:19.688Z,27.40
2018-04-16T18:27:47.798Z,27.30
2018-04-16T18:30:15.315Z,27.20
2018-04-16T18:32:42.783Z,27.10
2018-04-16T18:35:10.305Z,27.00
2018-04-16T18:37:37.836Z,26.90
2018-04-16T18:40:05.325Z,26.80
2018-04-16T18:42:32.804Z,26.70
2018-04-16T18:45:00.351Z,26.60
2018-04-16T18:47:27.927Z,26.50
2018-04-16T18:49:55.460Z,26.40
2018-04-16T18:52:22.951Z,26.40
2018-04-16T18:54:50.495Z,26.20
2018-04-16T18:57:18.091Z,26.10
2018-04-16T18:59:45.740Z,26.00
2018-04-16T19:02:13.404Z,25.90
2018-04-16T19:04:40.908Z,25.80
2018-04-16T19:07:08.386Z,25.70
2018-04-16T19:09:35.876Z,25.60
2018-04-16T19:12:03.404Z,25.50
2018-04-16T19:14:30.877Z,25.40
2018-04-16T19:17:01.388Z,25.30
2018-04-16T19:19:29.059Z,25.20
2018-04-16T19:21:56.540Z,25.20
2018-04-16T19:24:23.995Z,25.10
2018-04-16T19:26:57.100Z,25.00
2018-04-16T19:29:24.559Z,24.90
2018-04-16T19:31:52.039Z,24.90
2018-04-16T19:34:25.297Z,24.80
2018-04-16T19:36:52.830Z,24.70
2018-04-16T19:39:20.556Z,24.60
2018-04-16T19:41:53.886Z,24.50
2018-04-16T19:44:21.361Z,24.40
2018-04-16T19:46:48.832Z,24.40
2018-04-16T19:49:22.117Z,24.30
2018-04-16T19:51:49.587Z,24.20
2018-04-16T19:54:17.083Z,24.20
2018-04-16T19:56:50.325Z,24.10
2018-04-16T19:59:17.821Z,24.00
2018-04-16T20:04:49.220Z,23.90
2018-04-16T20:07:17.613Z,23.70
2018-04-16T20:09:45.883Z,23.70
2018-04-16T20:12:13.429Z,23.70
2018-04-16T20:14:40.926Z,23.60
2018-04-16T20:17:08.390Z,23.60
2018-04-16T20:19:35.899Z,23.50
2018-04-16T20:22:03.388Z,23.50
2018-04-16T20:24:32.204Z,23.40
2018-04-16T20:26:59.667Z,23.40
2018-04-16T20:29:27.155Z,23.30
2018-04-16T20:31:54.663Z,23.30
2018-04-16T20:34:22.928Z,23.30
2018-04-16T20:36:50.873Z,23.20
2018-04-16T20:39:18.452Z,23.20
2018-04-16T20:41:45.924Z,23.20
2018-04-16T20:44:14.195Z,23.20
2018-04-16T20:46:41.694Z,23.20
2018-04-16T20:49:09.164Z,23.20
2018-04-16T20:51:36.644Z,23.20
2018-04-16T20:54:04.109Z,23.10
2018-04-16T20:56:31.691Z,23.10
2018-04-16T20:58:59.163Z,23.10
2018-04-16T21:01:26.648Z,23.00
2018-04-16T21:03:54.119Z,23.00
2018-04-16T21:06:21.599Z,22.90
2018-04-16T21:08:49.064Z,22.90
2018-04-16T21:11:16.582Z,22.90
2018-04-16T21:13:44.056Z,22.90
2018-04-16T21:16:11.532Z,22.80
2018-04-16T21:18:38.999Z,22.70
2018-04-16T21:21:06.487Z,22.70
2018-04-16T21:23:34.596Z,22.70
2018-04-16T21:26:02.075Z,22.60
2018-04-16T21:28:29.530Z,22.50
2018-04-16T21:30:57.022Z,22.50
2018-04-16T21:33:24.487Z,22.50
2018-04-16T21:35:52.146Z,22.40
2018-04-16T21:38:19.647Z,22.30
2018-04-16T21:40:47.901Z,22.20
2018-04-16T21:43:15.400Z,22.20
2018-04-16T21:45:42.866Z,22.10
2018-04-16T21:48:10.339Z,22.10
2018-04-16T21:50:37.810Z,22.00
2018-04-16T21:53:05.352Z,21.90
2018-04-16T21:55:32.947Z,21.90
2018-04-16T21:58:00.427Z,21.80
2018-04-16T22:00:27.892Z,21.70
2018-04-16T22:02:55.371Z,21.70
2018-04-16T22:05:22.860Z,21.60
2018-04-16T22:07:50.334Z,21.50
2018-04-16T22:10:18.589Z,21.40
2018-04-16T22:12:46.068Z,21.40
2018-04-16T22:15:13.704Z,21.40
2018-04-16T22:17:41.195Z,21.30
2018-04-16T22:20:08.657Z,21.20
2018-04-16T22:22:36.151Z,21.10
2018-04-16T22:25:03.620Z,21.10
2018-04-16T22:27:31.111Z,21.00
2018-04-16T22:29:58.576Z,21.00
2018-04-16T22:32:26.072Z,20.90
2018-04-16T22:34:54.315Z,20.80
2018-04-16T22:37:22.543Z,20.70
2018-04-16T22:39:50.791Z,20.70
2018-04-16T22:42:18.255Z,20.70
2018-04-16T22:44:45.737Z,20.60
2018-04-16T22:47:13.337Z,20.60
2018-04-16T22:49:40.920Z,20.50
2018-04-16T22:52:08.518Z,20.50
2018-04-16T22:54:36.014Z,20.40
2018-04-16T22:57:03.503Z,20.30
2018-04-16T22:59:30.989Z,20.30
2018-04-16T23:01:58.504Z,20.20
2018-04-16T23:04:25.991Z,20.20
2018-04-16T23:06:53.459Z,20.10
2018-04-16T23:09:20.941Z,20.10
2018-04-16T23:11:48.411Z,20.00
2018-04-16T23:14:15.890Z,20.00
2018-04-16T23:16:43.364Z,20.00
2018-04-16T23:19:11.072Z,19.90
2018-04-16T23:21:38.535Z,19.90
2018-04-16T23:24:06.037Z,19.80
2018-04-16T23:26:34.415Z,19.70
2018-04-16T23:29:02.657Z,19.70
2018-04-16T23:31:30.131Z,19.60
2018-04-16T23:33:57.616Z,19.60
2018-04-16T23:36:25.111Z,19.60
2018-04-16T23:38:53.471Z,19.50
2018-04-16T23:41:20.951Z,19.40
2018-04-16T23:43:48.476Z,19.40
2018-04-16T23:46:16.018Z,19.40
2018-04-16T23:48:43.479Z,19.40
2018-04-16T23:51:10.959Z,19.30
2018-04-16T23:53:38.435Z,19.20
2018-04-16T23:56:05.907Z,19.20
2018-04-16T23:58:33.359Z,19.20
